sensor_id;sensor_type;location;lat;lon;timestamp;temperature;humidity
7494;DHT22;3788;49.902;8.590;2024-02-26T00:01:04;9.00;92.10
7494;DHT22;3788;49.902;8.590;2024-02-26T00:03:30;9.10;92.20
7494;DHT22;3788;49.902;8.590;2024-02-26T00:06:00;9.10;92.10
7494;DHT22;3788;49.902;8.590;2024-02-26T00:08:26;9.10;91.90
7494;DHT22;3788;49.902;8.590;2024-02-26T00:10:53;9.00;91.90
7494;DHT22;3788;49.902;8.590;2024-02-26T00:13:20;9.00;92.00
7494;DHT22;3788;49.902;8.590;2024-02-26T00:15:47;9.00;92.10
7494;DHT22;3788;49.902;8.590;2024-02-26T00:18:14;8.90;92.20
7494;DHT22;3788;49.902;8.590;2024-02-26T00:20:40;8.90;92.40
7494;DHT22;3788;49.902;8.590;2024-02-26T00:23:09;8.80;92.40
7494;DHT22;3788;49.902;8.590;2024-02-26T00:25:36;8.80;92.30
7494;DHT22;3788;49.902;8.590;2024-02-26T00:28:04;8.90;92.40
7494;DHT22;3788;49.902;8.590;2024-02-26T00:30:31;8.80;92.30
7494;DHT22;3788;49.902;8.590;2024-02-26T00:32:58;8.90;92.40
7494;DHT22;3788;49.902;8.590;2024-02-26T00:35:24;8.90;92.40
7494;DHT22;3788;49.902;8.590;2024-02-26T00:37:51;8.90;92.40
7494;DHT22;3788;49.902;8.590;2024-02-26T00:40:19;8.80;92.50
7494;DHT22;3788;49.902;8.590;2024-02-26T00:42:45;8.80;92.50
7494;DHT22;3788;49.902;8.590;2024-02-26T00:45:13;8.80;92.50
7494;DHT22;3788;49.902;8.590;2024-02-26T00:47:42;8.80;92.50
7494;DHT22;3788;49.902;8.590;2024-02-26T00:50:10;8.80;92.60
7494;DHT22;3788;49.902;8.590;2024-02-26T00:52:37;8.80;92.60
7494;DHT22;3788;49.902;8.590;2024-02-26T00:55:04;8.80;92.60
7494;DHT22;3788;49.902;8.590;2024-02-26T00:57:32;8.80;92.60
7494;DHT22;3788;49.902;8.590;2024-02-26T00:59:59;8.90;92.60
7494;DHT22;3788;49.902;8.590;2024-02-26T01:02:26;8.90;92.60
7494;DHT22;3788;49.902;8.590;2024-02-26T01:04:52;8.90;92.70
7494;DHT22;3788;49.902;8.590;2024-02-26T01:07:19;8.90;92.80
7494;DHT22;3788;49.902;8.590;2024-02-26T01:09:46;8.90;92.80
7494;DHT22;3788;49.902;8.590;2024-02-26T01:12:12;8.90;92.90
7494;DHT22;3788;49.902;8.590;2024-02-26T01:14:40;8.90;92.70
7494;DHT22;3788;49.902;8.590;2024-02-26T01:17:07;8.90;92.50
7494;DHT22;3788;49.902;8.590;2024-02-26T01:19:34;9.00;92.40
7494;DHT22;3788;49.902;8.590;2024-02-26T01:22:00;9.00;92.40
7494;DHT22;3788;49.902;8.590;2024-02-26T01:24:28;9.00;92.30
7494;DHT22;3788;49.902;8.590;2024-02-26T01:26:54;9.00;92.30
7494;DHT22;3788;49.902;8.590;2024-02-26T01:29:21;9.00;92.40
7494;DHT22;3788;49.902;8.590;2024-02-26T01:31:49;9.00;92.40
7494;DHT22;3788;49.902;8.590;2024-02-26T01:34:15;9.00;92.40
7494;DHT22;3788;49.902;8.590;2024-02-26T01:36:43;9.00;92.50
7494;DHT22;3788;49.902;8.590;2024-02-26T01:39:10;9.00;92.50
7494;DHT22;3788;49.902;8.590;2024-02-26T01:41:38;9.00;92.60
7494;DHT22;3788;49.902;8.590;2024-02-26T01:44:04;9.00;92.60
7494;DHT22;3788;49.902;8.590;2024-02-26T01:46:33;9.00;92.70
7494;DHT22;3788;49.902;8.590;2024-02-26T01:49:02;8.90;92.60
7494;DHT22;3788;49.902;8.590;2024-02-26T01:51:30;9.00;92.70
7494;DHT22;3788;49.902;8.590;2024-02-26T01:53:57;8.90;92.70
7494;DHT22;3788;49.902;8.590;2024-02-26T01:56:25;8.90;92.80
7494;DHT22;3788;49.902;8.590;2024-02-26T01:58:56;8.90;92.80
7494;DHT22;3788;49.902;8.590;2024-02-26T02:01:25;8.90;92.90
7494;DHT22;3788;49.902;8.590;2024-02-26T02:03:53;8.80;92.90
7494;DHT22;3788;49.902;8.590;2024-02-26T02:06:21;8.80;93.00
7494;DHT22;3788;49.902;8.590;2024-02-26T02:08:48;8.80;93.10
7494;DHT22;3788;49.902;8.590;2024-02-26T02:11:15;8.80;93.10
7494;DHT22;3788;49.902;8.590;2024-02-26T02:13:42;8.70;93.10
7494;DHT22;3788;49.902;8.590;2024-02-26T02:16:09;8.80;93.20
7494;DHT22;3788;49.902;8.590;2024-02-26T02:18:36;8.70;93.10
7494;DHT22;3788;49.902;8.590;2024-02-26T02:21:04;8.70;93.20
7494;DHT22;3788;49.902;8.590;2024-02-26T02:23:31;8.70;93.20
7494;DHT22;3788;49.902;8.590;2024-02-26T02:25:58;8.70;93.30
7494;DHT22;3788;49.902;8.590;2024-02-26T02:28:26;8.70;93.30
7494;DHT22;3788;49.902;8.590;2024-02-26T02:30:52;8.70;93.30
7494;DHT22;3788;49.902;8.590;2024-02-26T02:33:20;8.70;93.30
7494;DHT22;3788;49.902;8.590;2024-02-26T02:35:47;8.70;93.40
7494;DHT22;3788;49.902;8.590;2024-02-26T02:38:15;8.70;93.30
7494;DHT22;3788;49.902;8.590;2024-02-26T02:40:42;8.70;93.40
7494;DHT22;3788;49.902;8.590;2024-02-26T02:43:08;8.80;93.40
7494;DHT22;3788;49.902;8.590;2024-02-26T02:45:35;8.70;93.40
7494;DHT22;3788;49.902;8.590;2024-02-26T02:48:02;8.70;93.30
7494;DHT22;3788;49.902;8.590;2024-02-26T02:50:28;8.70;93.40
7494;DHT22;3788;49.902;8.590;2024-02-26T02:52:55;8.80;93.50
7494;DHT22;3788;49.902;8.590;2024-02-26T02:55:23;8.80;93.50
7494;DHT22;3788;49.902;8.590;2024-02-26T02:57:49;8.80;93.50
7494;DHT22;3788;49.902;8.590;2024-02-26T03:00:17;8.70;93.40
7494;DHT22;3788;49.902;8.590;2024-02-26T03:02:43;8.80;93.50
7494;DHT22;3788;49.902;8.590;2024-02-26T03:05:10;8.70;93.50
7494;DHT22;3788;49.902;8.590;2024-02-26T03:07:37;8.70;93.50
7494;DHT22;3788;49.902;8.590;2024-02-26T03:10:04;8.60;93.60
7494;DHT22;3788;49.902;8.590;2024-02-26T03:12:33;8.60;93.60
7494;DHT22;3788;49.902;8.590;2024-02-26T03:15:00;8.60;93.80
7494;DHT22;3788;49.902;8.590;2024-02-26T03:17:28;8.60;93.90
7494;DHT22;3788;49.902;8.590;2024-02-26T03:19:55;8.60;93.90
7494;DHT22;3788;49.902;8.590;2024-02-26T03:22:22;8.50;94.30
7494;DHT22;3788;49.902;8.590;2024-02-26T03:24:48;8.50;94.00
7494;DHT22;3788;49.902;8.590;2024-02-26T03:27:15;8.50;94.10
7494;DHT22;3788;49.902;8.590;2024-02-26T03:29:43;8.60;94.20
7494;DHT22;3788;49.902;8.590;2024-02-26T03:32:10;8.60;94.30
7494;DHT22;3788;49.902;8.590;2024-02-26T03:34:36;8.60;94.40
7494;DHT22;3788;49.902;8.590;2024-02-26T03:37:04;8.60;94.70
7494;DHT22;3788;49.902;8.590;2024-02-26T03:39:31;8.60;94.50
7494;DHT22;3788;49.902;8.590;2024-02-26T03:41:58;8.70;94.70
7494;DHT22;3788;49.902;8.590;2024-02-26T03:44:24;8.70;94.90
7494;DHT22;3788;49.902;8.590;2024-02-26T03:46:52;8.70;95.00
7494;DHT22;3788;49.902;8.590;2024-02-26T03:49:19;8.80;95.30
7494;DHT22;3788;49.902;8.590;2024-02-26T03:51:46;8.80;95.70
7494;DHT22;3788;49.902;8.590;2024-02-26T03:54:12;8.80;96.00
7494;DHT22;3788;49.902;8.590;2024-02-26T03:56:39;8.70;96.30
7494;DHT22;3788;49.902;8.590;2024-02-26T03:59:06;8.70;96.60
7494;DHT22;3788;49.902;8.590;2024-02-26T04:01:32;8.70;97.10
7494;DHT22;3788;49.902;8.590;2024-02-26T04:04:00;8.70;97.60
7494;DHT22;3788;49.902;8.590;2024-02-26T04:06:27;8.60;98.20
7494;DHT22;3788;49.902;8.590;2024-02-26T04:08:54;8.50;98.90
7494;DHT22;3788;49.902;8.590;2024-02-26T04:11:20;8.50;99.40
7494;DHT22;3788;49.902;8.590;2024-02-26T04:13:47;8.40;99.90
7494;DHT22;3788;49.902;8.590;2024-02-26T04:16:16;8.40;99.90
7494;DHT22;3788;49.902;8.590;2024-02-26T04:18:43;8.40;99.90
7494;DHT22;3788;49.902;8.590;2024-02-26T04:21:11;8.30;99.90
7494;DHT22;3788;49.902;8.590;2024-02-26T04:23:38;8.30;99.90
7494;DHT22;3788;49.902;8.590;2024-02-26T04:26:05;8.30;99.90
7494;DHT22;3788;49.902;8.590;2024-02-26T04:28:31;8.30;99.90
7494;DHT22;3788;49.902;8.590;2024-02-26T04:30:58;8.20;99.90
7494;DHT22;3788;49.902;8.590;2024-02-26T04:33:25;8.20;99.90
7494;DHT22;3788;49.902;8.590;2024-02-26T04:35:51;8.20;99.90
7494;DHT22;3788;49.902;8.590;2024-02-26T04:38:19;8.20;99.90
7494;DHT22;3788;49.902;8.590;2024-02-26T04:40:46;8.20;99.90
7494;DHT22;3788;49.902;8.590;2024-02-26T04:43:12;8.10;99.90
7494;DHT22;3788;49.902;8.590;2024-02-26T04:45:39;8.10;99.90
7494;DHT22;3788;49.902;8.590;2024-02-26T04:48:07;8.10;99.90
7494;DHT22;3788;49.902;8.590;2024-02-26T04:50:33;8.00;99.90
7494;DHT22;3788;49.902;8.590;2024-02-26T04:53:00;8.00;99.90
7494;DHT22;3788;49.902;8.590;2024-02-26T04:55:28;7.90;99.90
7494;DHT22;3788;49.902;8.590;2024-02-26T04:57:54;7.90;99.90
7494;DHT22;3788;49.902;8.590;2024-02-26T05:00:21;7.80;99.90
7494;DHT22;3788;49.902;8.590;2024-02-26T05:02:47;7.60;99.90
7494;DHT22;3788;49.902;8.590;2024-02-26T05:05:14;7.60;99.90
7494;DHT22;3788;49.902;8.590;2024-02-26T05:07:40;7.50;99.90
7494;DHT22;3788;49.902;8.590;2024-02-26T05:10:08;7.40;99.90
7494;DHT22;3788;49.902;8.590;2024-02-26T05:12:36;7.40;99.90
7494;DHT22;3788;49.902;8.590;2024-02-26T05:15:03;7.30;99.90
7494;DHT22;3788;49.902;8.590;2024-02-26T05:17:29;7.30;99.90
7494;DHT22;3788;49.902;8.590;2024-02-26T05:19:56;7.30;99.90
7494;DHT22;3788;49.902;8.590;2024-02-26T05:22:23;7.30;99.90
7494;DHT22;3788;49.902;8.590;2024-02-26T05:24:49;7.20;99.90
7494;DHT22;3788;49.902;8.590;2024-02-26T05:27:17;7.20;99.90
7494;DHT22;3788;49.902;8.590;2024-02-26T05:29:45;7.20;99.90
7494;DHT22;3788;49.902;8.590;2024-02-26T05:32:11;7.10;99.90
7494;DHT22;3788;49.902;8.590;2024-02-26T05:34:38;7.10;99.90
7494;DHT22;3788;49.902;8.590;2024-02-26T05:37:06;7.00;99.90
7494;DHT22;3788;49.902;8.590;2024-02-26T05:39:33;7.00;99.90
7494;DHT22;3788;49.902;8.590;2024-02-26T05:42:00;7.00;99.90
7494;DHT22;3788;49.902;8.590;2024-02-26T05:44:27;6.90;99.90
7494;DHT22;3788;49.902;8.590;2024-02-26T05:46:55;6.90;99.90
7494;DHT22;3788;49.902;8.590;2024-02-26T05:49:22;6.80;99.90
7494;DHT22;3788;49.902;8.590;2024-02-26T05:51:48;6.80;99.90
7494;DHT22;3788;49.902;8.590;2024-02-26T05:54:15;6.80;99.90
7494;DHT22;3788;49.902;8.590;2024-02-26T05:56:42;6.80;99.90
7494;DHT22;3788;49.902;8.590;2024-02-26T05:59:09;6.80;99.90
7494;DHT22;3788;49.902;8.590;2024-02-26T06:01:35;6.80;99.90
7494;DHT22;3788;49.902;8.590;2024-02-26T06:04:03;6.80;99.90
7494;DHT22;3788;49.902;8.590;2024-02-26T06:06:30;6.70;99.90
7494;DHT22;3788;49.902;8.590;2024-02-26T06:08:57;6.70;99.90
7494;DHT22;3788;49.902;8.590;2024-02-26T06:11:24;6.70;99.90
7494;DHT22;3788;49.902;8.590;2024-02-26T06:13:50;6.70;99.90
7494;DHT22;3788;49.902;8.590;2024-02-26T06:16:17;6.60;99.90
7494;DHT22;3788;49.902;8.590;2024-02-26T06:18:43;6.60;99.90
7494;DHT22;3788;49.902;8.590;2024-02-26T06:21:11;6.60;99.90
7494;DHT22;3788;49.902;8.590;2024-02-26T06:23:38;6.60;99.90
7494;DHT22;3788;49.902;8.590;2024-02-26T06:26:05;6.60;99.90
7494;DHT22;3788;49.902;8.590;2024-02-26T06:28:32;6.60;99.90
7494;DHT22;3788;49.902;8.590;2024-02-26T06:31:01;6.60;99.90
7494;DHT22;3788;49.902;8.590;2024-02-26T06:33:28;6.60;99.90
7494;DHT22;3788;49.902;8.590;2024-02-26T06:35:54;6.60;99.90
7494;DHT22;3788;49.902;8.590;2024-02-26T06:38:23;6.70;99.90
7494;DHT22;3788;49.902;8.590;2024-02-26T06:40:50;6.70;99.90
7494;DHT22;3788;49.902;8.590;2024-02-26T06:43:17;6.70;99.90
7494;DHT22;3788;49.902;8.590;2024-02-26T06:45:43;6.70;99.90
7494;DHT22;3788;49.902;8.590;2024-02-26T06:48:10;6.70;99.90
7494;DHT22;3788;49.902;8.590;2024-02-26T06:50:37;6.70;99.90
7494;DHT22;3788;49.902;8.590;2024-02-26T06:53:04;6.70;99.90
7494;DHT22;3788;49.902;8.590;2024-02-26T06:55:33;6.70;99.90
7494;DHT22;3788;49.902;8.590;2024-02-26T06:58:00;6.70;99.90
7494;DHT22;3788;49.902;8.590;2024-02-26T07:00:27;6.60;99.90
7494;DHT22;3788;49.902;8.590;2024-02-26T07:02:54;6.70;99.90
7494;DHT22;3788;49.902;8.590;2024-02-26T07:05:20;6.60;99.90
7494;DHT22;3788;49.902;8.590;2024-02-26T07:07:47;6.60;99.90
7494;DHT22;3788;49.902;8.590;2024-02-26T07:10:14;6.60;99.90
7494;DHT22;3788;49.902;8.590;2024-02-26T07:12:42;6.60;99.90
7494;DHT22;3788;49.902;8.590;2024-02-26T07:15:10;6.60;99.90
7494;DHT22;3788;49.902;8.590;2024-02-26T07:17:36;6.60;99.90
7494;DHT22;3788;49.902;8.590;2024-02-26T07:20:08;6.60;99.90
7494;DHT22;3788;49.902;8.590;2024-02-26T07:22:35;6.60;99.90
7494;DHT22;3788;49.902;8.590;2024-02-26T07:25:01;6.70;99.90
7494;DHT22;3788;49.902;8.590;2024-02-26T07:27:29;6.60;99.90
7494;DHT22;3788;49.902;8.590;2024-02-26T07:29:57;6.60;99.90
7494;DHT22;3788;49.902;8.590;2024-02-26T07:32:24;6.60;99.90
7494;DHT22;3788;49.902;8.590;2024-02-26T07:34:50;6.60;99.90
7494;DHT22;3788;49.902;8.590;2024-02-26T07:37:17;6.60;99.90
7494;DHT22;3788;49.902;8.590;2024-02-26T07:39:43;6.60;99.90
7494;DHT22;3788;49.902;8.590;2024-02-26T07:42:10;6.60;99.90
7494;DHT22;3788;49.902;8.590;2024-02-26T07:44:37;6.60;99.90
7494;DHT22;3788;49.902;8.590;2024-02-26T07:47:05;6.60;99.90
7494;DHT22;3788;49.902;8.590;2024-02-26T07:49:31;6.60;99.90
7494;DHT22;3788;49.902;8.590;2024-02-26T07:51:57;6.60;99.90
7494;DHT22;3788;49.902;8.590;2024-02-26T07:54:24;6.60;99.90
7494;DHT22;3788;49.902;8.590;2024-02-26T07:56:51;6.70;99.90
7494;DHT22;3788;49.902;8.590;2024-02-26T07:59:17;6.70;99.90
7494;DHT22;3788;49.902;8.590;2024-02-26T08:01:44;6.70;99.90
7494;DHT22;3788;49.902;8.590;2024-02-26T08:04:16;6.70;99.90
7494;DHT22;3788;49.902;8.590;2024-02-26T08:06:43;6.70;99.90
7494;DHT22;3788;49.902;8.590;2024-02-26T08:09:10;6.80;99.90
7494;DHT22;3788;49.902;8.590;2024-02-26T08:11:38;6.80;99.90
7494;DHT22;3788;49.902;8.590;2024-02-26T08:14:04;6.70;99.90
7494;DHT22;3788;49.902;8.590;2024-02-26T08:16:31;6.70;99.90
7494;DHT22;3788;49.902;8.590;2024-02-26T08:18:58;6.70;99.90
7494;DHT22;3788;49.902;8.590;2024-02-26T08:21:26;6.70;99.90
7494;DHT22;3788;49.902;8.590;2024-02-26T08:23:52;6.80;99.90
7494;DHT22;3788;49.902;8.590;2024-02-26T08:26:20;6.80;99.90
7494;DHT22;3788;49.902;8.590;2024-02-26T08:28:48;6.80;99.90
7494;DHT22;3788;49.902;8.590;2024-02-26T08:31:16;6.80;99.90
7494;DHT22;3788;49.902;8.590;2024-02-26T08:33:43;6.80;99.90
7494;DHT22;3788;49.902;8.590;2024-02-26T08:36:11;6.80;99.90
7494;DHT22;3788;49.902;8.590;2024-02-26T08:38:39;6.80;99.90
7494;DHT22;3788;49.902;8.590;2024-02-26T08:41:06;6.90;99.90
7494;DHT22;3788;49.902;8.590;2024-02-26T08:43:33;6.90;99.90
7494;DHT22;3788;49.902;8.590;2024-02-26T08:45:59;6.90;99.90
7494;DHT22;3788;49.902;8.590;2024-02-26T08:48:26;6.90;99.90
7494;DHT22;3788;49.902;8.590;2024-02-26T08:50:53;6.90;99.90
7494;DHT22;3788;49.902;8.590;2024-02-26T08:53:18;7.00;99.90
7494;DHT22;3788;49.902;8.590;2024-02-26T08:55:47;7.00;99.90
7494;DHT22;3788;49.902;8.590;2024-02-26T08:58:13;7.00;99.90
7494;DHT22;3788;49.902;8.590;2024-02-26T09:00:40;7.00;99.90
7494;DHT22;3788;49.902;8.590;2024-02-26T09:03:07;7.10;99.90
7494;DHT22;3788;49.902;8.590;2024-02-26T09:05:34;7.10;99.90
7494;DHT22;3788;49.902;8.590;2024-02-26T09:08:00;7.10;99.90
7494;DHT22;3788;49.902;8.590;2024-02-26T09:10:27;7.10;99.90
7494;DHT22;3788;49.902;8.590;2024-02-26T09:12:55;7.10;99.90
7494;DHT22;3788;49.902;8.590;2024-02-26T09:15:21;7.10;99.90
7494;DHT22;3788;49.902;8.590;2024-02-26T09:17:48;7.20;99.90
7494;DHT22;3788;49.902;8.590;2024-02-26T09:20:15;7.20;99.90
7494;DHT22;3788;49.902;8.590;2024-02-26T09:22:45;7.30;99.90
7494;DHT22;3788;49.902;8.590;2024-02-26T09:25:12;7.40;99.90
7494;DHT22;3788;49.902;8.590;2024-02-26T09:27:38;7.40;99.90
7494;DHT22;3788;49.902;8.590;2024-02-26T09:30:07;7.40;99.90
7494;DHT22;3788;49.902;8.590;2024-02-26T09:32:34;7.40;99.90
7494;DHT22;3788;49.902;8.590;2024-02-26T09:35:01;7.50;99.90
7494;DHT22;3788;49.902;8.590;2024-02-26T09:37:28;7.50;99.90
7494;DHT22;3788;49.902;8.590;2024-02-26T09:39:55;7.50;99.90
7494;DHT22;3788;49.902;8.590;2024-02-26T09:42:25;7.60;99.90
7494;DHT22;3788;49.902;8.590;2024-02-26T09:44:54;7.70;99.90
7494;DHT22;3788;49.902;8.590;2024-02-26T09:47:23;7.80;99.90
7494;DHT22;3788;49.902;8.590;2024-02-26T09:49:53;7.80;99.90
7494;DHT22;3788;49.902;8.590;2024-02-26T09:52:21;7.90;99.90
7494;DHT22;3788;49.902;8.590;2024-02-26T09:54:48;8.00;99.90
7494;DHT22;3788;49.902;8.590;2024-02-26T09:57:15;8.00;99.90
7494;DHT22;3788;49.902;8.590;2024-02-26T09:59:43;8.10;99.90
7494;DHT22;3788;49.902;8.590;2024-02-26T10:02:13;8.20;99.90
7494;DHT22;3788;49.902;8.590;2024-02-26T10:04:42;8.40;99.90
7494;DHT22;3788;49.902;8.590;2024-02-26T10:07:10;8.50;99.90
7494;DHT22;3788;49.902;8.590;2024-02-26T10:09:38;8.50;99.90
7494;DHT22;3788;49.902;8.590;2024-02-26T10:12:08;8.50;99.90
7494;DHT22;3788;49.902;8.590;2024-02-26T10:14:36;8.60;99.90
7494;DHT22;3788;49.902;8.590;2024-02-26T10:17:03;8.70;99.90
7494;DHT22;3788;49.902;8.590;2024-02-26T10:19:31;8.90;99.90
7494;DHT22;3788;49.902;8.590;2024-02-26T10:22:01;9.10;99.90
7494;DHT22;3788;49.902;8.590;2024-02-26T10:24:29;9.30;99.90
7494;DHT22;3788;49.902;8.590;2024-02-26T10:26:56;9.60;99.90
7494;DHT22;3788;49.902;8.590;2024-02-26T10:29:24;9.90;99.90
7494;DHT22;3788;49.902;8.590;2024-02-26T10:31:52;10.10;99.90
7494;DHT22;3788;49.902;8.590;2024-02-26T10:34:18;10.20;99.90
7494;DHT22;3788;49.902;8.590;2024-02-26T10:36:45;10.20;99.90
7494;DHT22;3788;49.902;8.590;2024-02-26T10:39:13;10.20;99.90
7494;DHT22;3788;49.902;8.590;2024-02-26T10:41:43;10.20;99.90
7494;DHT22;3788;49.902;8.590;2024-02-26T10:44:11;10.40;99.90
7494;DHT22;3788;49.902;8.590;2024-02-26T10:46:38;10.50;99.90
7494;DHT22;3788;49.902;8.590;2024-02-26T10:49:05;10.60;99.90
7494;DHT22;3788;49.902;8.590;2024-02-26T10:51:36;10.60;99.90
7494;DHT22;3788;49.902;8.590;2024-02-26T10:54:04;10.60;99.90
7494;DHT22;3788;49.902;8.590;2024-02-26T10:56:34;10.50;99.90
7494;DHT22;3788;49.902;8.590;2024-02-26T10:59:04;10.40;99.90
7494;DHT22;3788;49.902;8.590;2024-02-26T11:01:31;10.40;99.90
7494;DHT22;3788;49.902;8.590;2024-02-26T11:03:59;10.20;99.90
7494;DHT22;3788;49.902;8.590;2024-02-26T11:06:27;10.10;99.90
7494;DHT22;3788;49.902;8.590;2024-02-26T11:08:55;10.20;99.90
7494;DHT22;3788;49.902;8.590;2024-02-26T11:11:22;10.30;99.90
7494;DHT22;3788;49.902;8.590;2024-02-26T11:13:51;10.30;99.90
7494;DHT22;3788;49.902;8.590;2024-02-26T11:16:21;10.20;99.90
7494;DHT22;3788;49.902;8.590;2024-02-26T11:18:48;10.20;99.90
7494;DHT22;3788;49.902;8.590;2024-02-26T11:21:16;10.30;99.90
7494;DHT22;3788;49.902;8.590;2024-02-26T11:23:44;10.20;99.90
7494;DHT22;3788;49.902;8.590;2024-02-26T11:26:12;10.20;99.90
7494;DHT22;3788;49.902;8.590;2024-02-26T11:28:40;10.20;99.90
7494;DHT22;3788;49.902;8.590;2024-02-26T11:31:09;10.30;99.90
7494;DHT22;3788;49.902;8.590;2024-02-26T11:33:36;10.30;99.90
7494;DHT22;3788;49.902;8.590;2024-02-26T11:36:03;10.40;99.90
7494;DHT22;3788;49.902;8.590;2024-02-26T11:38:34;10.40;99.90
7494;DHT22;3788;49.902;8.590;2024-02-26T11:41:01;10.40;99.90
7494;DHT22;3788;49.902;8.590;2024-02-26T11:43:51;10.40;99.90
7494;DHT22;3788;49.902;8.590;2024-02-26T11:46:27;10.40;99.90
7494;DHT22;3788;49.902;8.590;2024-02-26T11:48:58;10.40;99.90
7494;DHT22;3788;49.902;8.590;2024-02-26T11:51:28;10.50;99.90
7494;DHT22;3788;49.902;8.590;2024-02-26T11:53:58;10.60;99.90
7494;DHT22;3788;49.902;8.590;2024-02-26T11:56:25;10.80;99.90
7494;DHT22;3788;49.902;8.590;2024-02-26T11:58:57;10.90;99.90
7494;DHT22;3788;49.902;8.590;2024-02-26T12:01:42;10.90;99.90
7494;DHT22;3788;49.902;8.590;2024-02-26T12:04:13;10.90;99.90
7494;DHT22;3788;49.902;8.590;2024-02-26T12:06:42;10.90;99.90
7494;DHT22;3788;49.902;8.590;2024-02-26T12:09:09;10.80;99.90
7494;DHT22;3788;49.902;8.590;2024-02-26T12:11:38;10.80;99.90
7494;DHT22;3788;49.902;8.590;2024-02-26T12:14:07;10.80;99.90
7494;DHT22;3788;49.902;8.590;2024-02-26T12:16:37;10.80;99.90
7494;DHT22;3788;49.902;8.590;2024-02-26T12:19:07;10.70;99.90
7494;DHT22;3788;49.902;8.590;2024-02-26T12:21:35;10.80;99.90
7494;DHT22;3788;49.902;8.590;2024-02-26T12:24:13;10.80;99.90
7494;DHT22;3788;49.902;8.590;2024-02-26T12:26:41;10.80;99.90
7494;DHT22;3788;49.902;8.590;2024-02-26T12:29:08;10.80;99.90
7494;DHT22;3788;49.902;8.590;2024-02-26T12:31:35;10.80;99.90
7494;DHT22;3788;49.902;8.590;2024-02-26T12:34:06;10.80;99.90
7494;DHT22;3788;49.902;8.590;2024-02-26T12:36:34;10.80;99.90
7494;DHT22;3788;49.902;8.590;2024-02-26T12:39:02;10.80;99.90
7494;DHT22;3788;49.902;8.590;2024-02-26T12:41:31;10.90;99.90
7494;DHT22;3788;49.902;8.590;2024-02-26T12:43:58;10.90;99.90
7494;DHT22;3788;49.902;8.590;2024-02-26T12:46:25;10.90;99.90
7494;DHT22;3788;49.902;8.590;2024-02-26T12:48:54;11.00;99.90
7494;DHT22;3788;49.902;8.590;2024-02-26T12:51:25;11.00;99.90
7494;DHT22;3788;49.902;8.590;2024-02-26T12:53:52;11.00;99.90
7494;DHT22;3788;49.902;8.590;2024-02-26T12:56:19;11.10;99.90
7494;DHT22;3788;49.902;8.590;2024-02-26T12:58:46;11.10;99.90
7494;DHT22;3788;49.902;8.590;2024-02-26T13:01:15;11.10;99.90
7494;DHT22;3788;49.902;8.590;2024-02-26T13:03:43;11.10;99.90
7494;DHT22;3788;49.902;8.590;2024-02-26T13:06:10;11.10;99.90
7494;DHT22;3788;49.902;8.590;2024-02-26T13:08:38;11.20;99.90
7494;DHT22;3788;49.902;8.590;2024-02-26T13:11:06;11.20;99.90
7494;DHT22;3788;49.902;8.590;2024-02-26T13:13:32;11.20;99.90
7494;DHT22;3788;49.902;8.590;2024-02-26T13:16:03;11.20;99.90
7494;DHT22;3788;49.902;8.590;2024-02-26T13:18:32;11.20;99.90
7494;DHT22;3788;49.902;8.590;2024-02-26T13:21:09;11.20;99.90
7494;DHT22;3788;49.902;8.590;2024-02-26T13:23:37;11.20;99.90
7494;DHT22;3788;49.902;8.590;2024-02-26T13:26:04;11.20;99.90
7494;DHT22;3788;49.902;8.590;2024-02-26T13:28:31;11.10;99.90
7494;DHT22;3788;49.902;8.590;2024-02-26T13:30:58;11.20;99.90
7494;DHT22;3788;49.902;8.590;2024-02-26T13:33:27;11.20;99.90
7494;DHT22;3788;49.902;8.590;2024-02-26T13:35:55;11.40;99.90
7494;DHT22;3788;49.902;8.590;2024-02-26T13:38:22;11.50;99.90
7494;DHT22;3788;49.902;8.590;2024-02-26T13:40:51;11.70;99.90
7494;DHT22;3788;49.902;8.590;2024-02-26T13:43:17;11.80;99.90
7494;DHT22;3788;49.902;8.590;2024-02-26T13:45:44;11.90;99.90
7494;DHT22;3788;49.902;8.590;2024-02-26T13:48:12;12.00;99.90
7494;DHT22;3788;49.902;8.590;2024-02-26T13:50:39;12.10;99.90
7494;DHT22;3788;49.902;8.590;2024-02-26T13:53:05;12.20;99.90
7494;DHT22;3788;49.902;8.590;2024-02-26T13:55:33;12.20;99.90
7494;DHT22;3788;49.902;8.590;2024-02-26T13:58:01;12.30;99.90
7494;DHT22;3788;49.902;8.590;2024-02-26T14:00:28;12.30;99.90
7494;DHT22;3788;49.902;8.590;2024-02-26T14:02:55;12.30;99.90
7494;DHT22;3788;49.902;8.590;2024-02-26T14:05:22;12.20;99.90
7494;DHT22;3788;49.902;8.590;2024-02-26T14:07:48;12.10;99.90
7494;DHT22;3788;49.902;8.590;2024-02-26T14:10:15;12.00;99.90
7494;DHT22;3788;49.902;8.590;2024-02-26T14:12:42;11.90;99.90
7494;DHT22;3788;49.902;8.590;2024-02-26T14:15:10;11.70;99.90
7494;DHT22;3788;49.902;8.590;2024-02-26T14:17:37;11.60;99.90
7494;DHT22;3788;49.902;8.590;2024-02-26T14:20:05;11.50;99.90
7494;DHT22;3788;49.902;8.590;2024-02-26T14:22:33;11.40;99.90
7494;DHT22;3788;49.902;8.590;2024-02-26T14:25:00;11.30;99.90
7494;DHT22;3788;49.902;8.590;2024-02-26T14:27:26;11.20;99.90
7494;DHT22;3788;49.902;8.590;2024-02-26T14:29:53;11.20;99.90
7494;DHT22;3788;49.902;8.590;2024-02-26T14:32:22;11.20;99.90
7494;DHT22;3788;49.902;8.590;2024-02-26T14:34:48;11.30;99.90
7494;DHT22;3788;49.902;8.590;2024-02-26T14:37:15;11.30;99.90
7494;DHT22;3788;49.902;8.590;2024-02-26T14:39:42;11.40;99.90
7494;DHT22;3788;49.902;8.590;2024-02-26T14:42:09;11.40;99.90
7494;DHT22;3788;49.902;8.590;2024-02-26T14:44:35;11.40;99.90
7494;DHT22;3788;49.902;8.590;2024-02-26T14:47:02;11.40;99.90
7494;DHT22;3788;49.902;8.590;2024-02-26T14:49:30;11.40;99.90
7494;DHT22;3788;49.902;8.590;2024-02-26T14:51:57;11.40;99.90
7494;DHT22;3788;49.902;8.590;2024-02-26T14:54:24;11.30;99.90
7494;DHT22;3788;49.902;8.590;2024-02-26T14:56:50;11.30;99.90
7494;DHT22;3788;49.902;8.590;2024-02-26T14:59:17;11.30;99.90
7494;DHT22;3788;49.902;8.590;2024-02-26T15:01:44;11.40;99.90
7494;DHT22;3788;49.902;8.590;2024-02-26T15:04:11;11.50;99.90
7494;DHT22;3788;49.902;8.590;2024-02-26T15:06:39;11.50;99.90
7494;DHT22;3788;49.902;8.590;2024-02-26T15:09:06;11.60;99.90
7494;DHT22;3788;49.902;8.590;2024-02-26T15:11:33;11.60;99.90
7494;DHT22;3788;49.902;8.590;2024-02-26T15:13:59;11.60;99.90
7494;DHT22;3788;49.902;8.590;2024-02-26T15:16:26;11.60;99.90
7494;DHT22;3788;49.902;8.590;2024-02-26T15:18:54;11.60;99.90
7494;DHT22;3788;49.902;8.590;2024-02-26T15:21:20;11.50;99.90
7494;DHT22;3788;49.902;8.590;2024-02-26T15:23:48;11.50;99.90
7494;DHT22;3788;49.902;8.590;2024-02-26T15:26:15;11.40;99.90
7494;DHT22;3788;49.902;8.590;2024-02-26T15:28:43;11.30;99.90
7494;DHT22;3788;49.902;8.590;2024-02-26T15:31:10;11.30;99.90
7494;DHT22;3788;49.902;8.590;2024-02-26T15:33:37;11.30;99.90
7494;DHT22;3788;49.902;8.590;2024-02-26T15:36:04;11.20;99.90
7494;DHT22;3788;49.902;8.590;2024-02-26T15:38:34;11.30;99.90
7494;DHT22;3788;49.902;8.590;2024-02-26T15:41:03;11.30;99.90
7494;DHT22;3788;49.902;8.590;2024-02-26T15:43:29;11.30;99.90
7494;DHT22;3788;49.902;8.590;2024-02-26T15:45:56;11.40;99.90
7494;DHT22;3788;49.902;8.590;2024-02-26T15:48:23;11.40;99.90
7494;DHT22;3788;49.902;8.590;2024-02-26T15:50:49;11.40;99.90
7494;DHT22;3788;49.902;8.590;2024-02-26T15:53:16;11.40;99.90
7494;DHT22;3788;49.902;8.590;2024-02-26T15:55:42;11.40;99.90
7494;DHT22;3788;49.902;8.590;2024-02-26T15:58:10;11.30;99.90
7494;DHT22;3788;49.902;8.590;2024-02-26T16:00:39;11.30;99.90
7494;DHT22;3788;49.902;8.590;2024-02-26T16:03:07;11.40;99.90
7494;DHT22;3788;49.902;8.590;2024-02-26T16:05:33;11.30;99.90
7494;DHT22;3788;49.902;8.590;2024-02-26T16:08:04;11.30;99.90
7494;DHT22;3788;49.902;8.590;2024-02-26T16:10:31;11.30;99.90
7494;DHT22;3788;49.902;8.590;2024-02-26T16:13:00;11.30;99.90